aviador You're here:

CYQA Decoded Metar

MUSKOKA in ON, CANADA
Report Time2017-09-25 02:23:00
UTC Time2017-09-25 02:41:36
Flight Rules mvfr MVFR
WindCalm
Visibility8047 m
Phenomena:Mist
Clouds:N/A
CeilingNone
Temp18°C (ISA +5)
Dew Point18°C (100% RH)
QNH1020 hPa
Density Alt1,535 ft
Elevation925 ft
Report Wrong Elevation
Raw Report
SPECI CYQA 250223Z AUTO 00000KT 5SM BR CLR 18/18 A3011 RMK SLP197 DENSITY
ALT 1200FT=

Extra information for CYQA:More info

Metar Taf Metar & Taf Last 4 Metars F.Rules Stats Wind Profile Meteogram Temp Stats Airport Information Weather charts Add Link Nearby VenuesMetar ALERT Operation Metar Decoded Social comments